Time;durP1;ratioP1;P1;durP2;ratioP2;P2;SDS_P1;SDS_P2;PMS_P1;PMS_P2;Temp;Humidity;BMP_temperature;BMP_pressure;BME280_temperature;BME280_humidity;BME280_pressure;Samples;Min_cycle;Max_cycle;Signal;HPM_P1;HPM_P2
2023/10/06 00:00:40;;;;;;;7.83;3.07;;;;;;;7.39;100.00;148021.00;4994285;28;20319;-59
2023/10/06 00:03:10;;;;;;;9.53;3.40;;;;;;;7.35;100.00;148009.81;4996813;28;20248;-58
2023/10/06 00:05:37;;;;;;;8.80;3.50;;;;;;;7.29;100.00;147996.13;5001265;28;20700;-58
2023/10/06 00:08:07;;;;;;;9.23;2.93;;;;;;;7.33;100.00;148004.84;5001696;28;20244;-58
2023/10/06 00:10:35;;;;;;;9.70;2.90;;;;;;;7.30;100.00;147997.41;5002929;28;20226;-59
2023/10/06 00:13:05;;;;;;;9.07;3.13;;;;;;;7.22;100.00;147980.00;4993970;28;20245;-59
2023/10/06 00:15:38;;;;;;;9.47;3.40;;;;;;;7.24;100.00;147983.72;5009739;28;20233;-59
2023/10/06 00:18:09;;;;;;;8.57;3.40;;;;;;;7.23;100.00;147982.50;5014418;28;20268;-59
2023/10/06 00:20:48;;;;;;;9.63;3.30;;;;;;;7.18;100.00;147970.06;5008394;28;20220;-59
2023/10/06 00:23:20;;;;;;;8.83;3.43;;;;;;;7.24;100.00;147984.97;5018839;28;20311;-59
2023/10/06 00:25:47;;;;;;;10.23;3.47;;;;;;;7.32;100.00;148003.59;5014401;28;20617;-60
2023/10/06 00:28:19;;;;;;;7.83;2.77;;;;;;;7.26;100.00;147988.69;5016959;28;20221;-60
2023/10/06 00:30:55;;;;;;;10.13;3.00;;;;;;;7.28;100.00;147992.44;5011766;28;20237;-59
2023/10/06 00:33:22;;;;;;;10.00;3.17;;;;;;;7.24;100.00;147984.97;5015803;28;20580;-61
2023/10/06 00:35:50;;;;;;;17.07;2.87;;;;;;;7.22;100.00;147978.75;5010339;28;20273;-59
2023/10/06 00:38:17;;;;;;;7.10;2.97;;;;;;;7.20;100.00;147975.03;5015730;28;20225;-61
2023/10/06 00:40:51;;;;;;;9.30;2.90;;;;;;;7.14;100.00;147960.13;4991223;28;20242;-60
2023/10/06 00:43:30;;;;;;;10.57;3.00;;;;;;;7.22;100.00;147978.75;5001740;28;20291;-61
2023/10/06 00:46:00;;;;;;;9.20;3.33;;;;;;;7.17;100.00;147967.56;5011016;28;20229;-58
2023/10/06 00:48:29;;;;;;;9.47;3.33;;;;;;;7.14;100.00;147958.84;5008146;28;20254;-61
2023/10/06 00:50:58;;;;;;;9.37;3.03;;;;;;;7.20;100.00;147975.03;5022042;28;20229;-61
2023/10/06 00:53:31;;;;;;;6.50;2.40;;;;;;;7.15;100.00;147962.59;5021201;28;20283;-60
2023/10/06 00:55:59;;;;;;;8.57;3.17;;;;;;;7.22;100.00;147980.00;5001799;28;20220;-60
2023/10/06 00:58:28;;;;;;;13.67;3.47;;;;;;;7.15;100.00;147961.34;5012268;28;20773;-59
2023/10/06 01:00:56;;;;;;;8.53;2.63;;;;;;;7.07;100.00;147942.72;5013772;28;20228;-62
2023/10/06 01:03:25;;;;;;;6.83;2.80;;;;;;;7.13;100.00;147956.38;5014265;28;20227;-60
2023/10/06 01:05:57;;;;;;;7.83;2.97;;;;;;;7.19;100.00;147971.28;5015961;28;20231;-60
2023/10/06 01:08:24;;;;;;;7.83;2.63;;;;;;;7.19;100.00;147971.28;5018100;28;20768;-61
2023/10/06 01:10:51;;;;;;;11.13;3.00;;;;;;;7.16;100.00;147965.09;5010388;28;20724;-60
2023/10/06 01:13:19;;;;;;;7.53;3.23;;;;;;;7.21;100.00;147977.53;5011970;28;20782;-61
2023/10/06 01:15:49;;;;;;;10.07;2.93;;;;;;;7.29;100.00;147994.91;4994229;28;21488;-61
2023/10/06 01:18:23;;;;;;;7.37;3.07;;;;;;;7.38;100.00;148017.28;5008715;28;20275;-61
2023/10/06 01:20:51;;;;;;;13.07;3.50;;;;;;;7.31;100.00;147999.88;4997947;28;20299;-61
2023/10/06 01:23:21;;;;;;;9.90;3.00;;;;;;;7.25;100.00;147986.19;4991743;28;20239;-61
2023/10/06 01:25:53;;;;;;;11.33;3.10;;;;;;;7.31;100.00;147999.88;5003777;28;20224;-61
2023/10/06 01:28:23;;;;;;;8.70;3.23;;;;;;;7.19;100.00;147971.28;5006251;28;20221;-61
2023/10/06 01:30:50;;;;;;;10.17;3.00;;;;;;;7.16;100.00;147963.81;5001660;28;20726;-60
2023/10/06 01:33:17;;;;;;;8.33;2.67;;;;;;;7.17;100.00;147967.56;4988860;28;20268;-61
2023/10/06 01:35:45;;;;;;;9.43;3.23;;;;;;;7.12;100.00;147955.16;4996739;28;20217;-61
2023/10/06 01:38:19;;;;;;;6.63;2.70;;;;;;;7.14;100.00;147960.13;4994716;28;20284;-61
2023/10/06 01:40:51;;;;;;;11.40;3.13;;;;;;;7.08;100.00;147945.22;4992796;28;20236;-61
2023/10/06 01:43:22;;;;;;;8.17;3.00;;;;;;;7.03;100.00;147934.00;5004664;28;20225;-61
2023/10/06 01:45:50;;;;;;;7.27;2.80;;;;;;;7.01;100.00;147929.03;5005153;28;20244;-61
2023/10/06 01:48:29;;;;;;;9.00;2.97;;;;;;;6.96;100.00;147916.59;5017133;28;20229;-61
2023/10/06 01:50:56;;;;;;;10.43;2.67;;;;;;;6.96;100.00;147915.38;5013594;28;20235;-61
2023/10/06 01:53:22;;;;;;;8.40;3.00;;;;;;;6.90;100.00;147902.97;5018749;28;20233;-61
2023/10/06 01:55:52;;;;;;;8.90;3.27;;;;;;;6.90;100.00;147902.97;5001992;28;20238;-61
2023/10/06 01:58:19;;;;;;;9.63;3.30;;;;;;;6.88;100.00;147896.78;4996184;28;20234;-61
2023/10/06 02:00:48;;;;;;;9.03;2.93;;;;;;;6.88;100.00;147896.78;5010741;28;20320;-61
2023/10/06 02:03:17;;;;;;;5.97;2.93;;;;;;;6.85;100.00;147889.31;5016151;28;20237;-61
2023/10/06 02:05:43;;;;;;;9.27;2.60;;;;;;;6.84;100.00;147888.06;5014061;28;20251;-61
2023/10/06 02:08:14;;;;;;;6.17;2.80;;;;;;;6.83;100.00;147885.56;5017297;28;20295;-61
2023/10/06 02:10:44;;;;;;;6.17;3.00;;;;;;;6.87;100.00;147894.28;5011802;28;20256;-61
2023/10/06 02:13:12;;;;;;;8.50;3.40;;;;;;;6.79;100.00;147875.63;4998545;28;20238;-61
2023/10/06 02:15:39;;;;;;;8.33;2.90;;;;;;;6.81;100.00;147880.59;4997572;28;20229;-61
2023/10/06 02:18:12;;;;;;;11.83;3.40;;;;;;;6.77;100.00;147870.66;5015492;28;20237;-61
2023/10/06 02:20:41;;;;;;;6.47;2.80;;;;;;;6.74;100.00;147864.47;5005204;28;20230;-61
2023/10/06 02:23:08;;;;;;;10.63;3.07;;;;;;;6.76;100.00;147868.16;5009915;28;20225;-61
2023/10/06 02:25:36;;;;;;;9.33;3.40;;;;;;;6.74;100.00;147863.19;5018419;28;20231;-61
2023/10/06 02:28:05;;;;;;;9.20;3.00;;;;;;;6.76;100.00;147869.44;5017130;28;20302;-60
2023/10/06 02:30:36;;;;;;;9.00;3.03;;;;;;;6.75;100.00;147866.97;4995950;28;20455;-61
2023/10/06 02:33:05;;;;;;;12.87;2.80;;;;;;;6.68;100.00;147848.28;5002902;28;20236;-61
2023/10/06 02:35:31;;;;;;;7.30;3.13;;;;;;;6.63;100.00;147838.34;5001662;28;20216;-61
2023/10/06 02:38:04;;;;;;;9.23;3.13;;;;;;;6.60;100.00;147830.91;5020373;28;20228;-61
2023/10/06 02:40:38;;;;;;;8.17;2.90;;;;;;;6.62;100.00;147834.66;5005474;28;20243;-61
2023/10/06 02:43:07;;;;;;;8.80;3.20;;;;;;;6.62;100.00;147835.88;5018513;28;20236;-61
2023/10/06 02:45:40;;;;;;;6.90;2.73;;;;;;;6.63;100.00;147837.13;5018384;28;20241;-61
2023/10/06 02:48:14;;;;;;;8.27;2.93;;;;;;;6.60;100.00;147829.69;5033534;28;20241;-61
2023/10/06 02:50:44;;;;;;;13.07;3.30;;;;;;;6.57;100.00;147823.47;5029679;28;20240;-61
2023/10/06 02:53:14;;;;;;;8.67;3.30;;;;;;;6.54;100.00;147814.78;5011664;28;20325;-61
2023/10/06 02:55:44;;;;;;;9.03;3.40;;;;;;;6.53;100.00;147813.50;4995010;28;20233;-60
2023/10/06 02:58:17;;;;;;;6.70;2.73;;;;;;;6.54;100.00;147816.00;4999005;28;20234;-61
2023/10/06 03:04:07;;;;;;;9.03;3.77;;;;;;;6.44;100.00;147792.44;5693363;23;20279;-53
2023/10/06 03:06:34;;;;;;;7.50;3.20;;;;;;;6.44;100.00;147791.16;4944482;28;20254;-51
2023/10/06 03:09:06;;;;;;;9.63;3.10;;;;;;;6.42;100.00;147787.44;4888852;28;20239;-54
2023/10/06 03:11:38;;;;;;;8.80;2.97;;;;;;;6.42;100.00;147786.19;4909945;28;20237;-56
2023/10/06 03:14:14;;;;;;;7.77;2.97;;;;;;;6.40;100.00;147781.22;4926104;28;20231;-52
2023/10/06 03:16:44;;;;;;;6.97;2.90;;;;;;;6.35;100.00;147770.06;4913313;28;20222;-54
2023/10/06 03:19:23;;;;;;;10.33;3.37;;;;;;;6.41;100.00;147784.97;4917839;28;20690;-55
2023/10/06 03:22:01;;;;;;;9.67;2.90;;;;;;;6.39;100.00;147780.00;4912008;28;20230;-53
2023/10/06 03:24:54;;;;;;;9.57;3.07;;;;;;;6.40;100.00;147782.47;4898212;28;20326;-55
2023/10/06 03:27:26;;;;;;;8.97;3.23;;;;;;;6.38;100.00;147777.50;4919985;28;20871;-54
2023/10/06 03:29:55;;;;;;;9.33;3.67;;;;;;;6.34;100.00;147768.84;4900377;28;20236;-54
2023/10/06 03:32:39;;;;;;;6.00;3.10;;;;;;;6.40;100.00;147781.22;5221530;23;20305;-53
2023/10/06 03:35:21;;;;;;;6.10;2.93;;;;;;;6.28;100.00;147753.94;4846846;28;20232;-52
2023/10/06 03:37:54;;;;;;;7.53;2.70;;;;;;;6.28;100.00;147752.69;4917681;28;20946;-53
2023/10/06 03:40:30;;;;;;;6.43;2.80;;;;;;;6.24;100.00;147742.75;4938814;28;20221;-53
2023/10/06 03:43:04;;;;;;;9.23;3.07;;;;;;;6.30;100.00;147757.66;4956135;28;20230;-56
2023/10/06 03:45:40;;;;;;;7.27;3.03;;;;;;;6.25;100.00;147746.50;4935634;28;20253;-53
2023/10/06 03:48:11;;;;;;;9.10;2.90;;;;;;;6.23;100.00;147741.53;4968224;23;20278;-56
2023/10/06 03:50:41;;;;;;;9.40;2.87;;;;;;;6.22;100.00;147739.03;4968764;28;20225;-56
2023/10/06 03:53:08;;;;;;;7.20;3.50;;;;;;;6.19;100.00;147732.81;4944383;28;20227;-56
2023/10/06 03:55:39;;;;;;;8.10;2.87;;;;;;;6.18;100.00;147729.09;4939851;28;20226;-56
2023/10/06 03:58:06;;;;;;;8.70;3.07;;;;;;;6.14;100.00;147720.38;4944252;28;20230;-54
2023/10/06 04:00:38;;;;;;;7.87;2.83;;;;;;;6.13;100.00;147717.91;4940858;28;20291;-55
2023/10/06 04:03:06;;;;;;;11.37;3.10;;;;;;;6.12;100.00;147714.19;4943666;28;20254;-56
2023/10/06 04:05:37;;;;;;;6.67;2.90;;;;;;;6.09;100.00;147707.97;4941562;28;20607;-57
2023/10/06 04:08:11;;;;;;;11.43;3.50;;;;;;;6.08;100.00;147705.50;4943107;28;20231;-58
2023/10/06 04:10:40;;;;;;;11.20;3.20;;;;;;;6.09;100.00;147706.75;4939210;28;20245;-57
2023/10/06 04:13:08;;;;;;;6.90;2.97;;;;;;;6.08;100.00;147704.28;4943285;28;20215;-57
2023/10/06 04:15:38;;;;;;;6.07;3.00;;;;;;;6.09;100.00;147707.97;4940860;28;20273;-56
2023/10/06 04:18:09;;;;;;;8.47;3.23;;;;;;;6.08;100.00;147705.50;4944961;28;20319;-56
2023/10/06 04:20:36;;;;;;;9.13;4.40;;;;;;;6.10;100.00;147710.47;4941084;28;20316;-56
2023/10/06 04:23:04;;;;;;;8.00;3.27;;;;;;;6.07;100.00;147703.00;4942262;28;20228;-55
2023/10/06 04:25:31;;;;;;;12.10;3.97;;;;;;;6.01;100.00;147689.38;4939663;28;20250;-57
2023/10/06 04:27:58;;;;;;;6.67;2.83;;;;;;;6.06;100.00;147700.53;4943379;28;20701;-57
2023/10/06 04:30:25;;;;;;;11.88;3.90;;;;;;;6.12;100.00;147714.19;4944697;28;20455;-57
2023/10/06 04:32:53;;;;;;;9.23;3.20;;;;;;;6.10;100.00;147709.25;4936781;28;20714;-57
2023/10/06 04:35:24;;;;;;;9.53;3.70;;;;;;;6.05;100.00;147699.31;4943233;28;20238;-57
2023/10/06 04:37:51;;;;;;;6.63;3.23;;;;;;;6.02;100.00;147690.59;4943160;28;20699;-57
2023/10/06 04:40:24;;;;;;;10.83;3.20;;;;;;;6.00;100.00;147685.56;4944167;28;20214;-57
2023/10/06 04:42:50;;;;;;;9.33;3.30;;;;;;;5.97;100.00;147678.13;4940333;28;20242;-55
2023/10/06 04:45:22;;;;;;;10.47;3.60;;;;;;;5.93;100.00;147668.19;4943617;28;20315;-57
2023/10/06 04:47:49;;;;;;;10.53;3.53;;;;;;;5.88;100.00;147657.03;4939703;28;20585;-57
2023/10/06 04:50:42;;;;;;;9.90;3.40;;;;;;;5.86;100.00;147653.28;4939665;28;20319;-56
2023/10/06 04:53:11;;;;;;;8.50;3.03;;;;;;;5.85;100.00;147649.59;4943390;28;20219;-56
2023/10/06 04:55:39;;;;;;;7.03;3.50;;;;;;;5.83;100.00;147645.84;4939416;28;20287;-56
2023/10/06 04:58:08;;;;;;;7.80;3.20;;;;;;;5.83;100.00;147645.84;4942801;28;20250;-57
2023/10/06 05:00:35;;;;;;;7.43;2.83;;;;;;;5.83;100.00;147645.84;4940477;28;20337;-55
2023/10/06 05:03:04;;;;;;;11.30;3.70;;;;;;;5.81;100.00;147640.94;4942016;28;20599;-56
2023/10/06 05:05:35;;;;;;;9.47;3.00;;;;;;;5.87;100.00;147655.78;4940075;28;20227;-56
2023/10/06 05:08:02;;;;;;;9.77;3.30;;;;;;;5.80;100.00;147637.19;4942437;28;20232;-56
2023/10/06 05:10:30;;;;;;;9.87;3.10;;;;;;;5.78;100.00;147633.47;4939666;28;20285;-55
2023/10/06 05:12:59;;;;;;;8.37;3.37;;;;;;;5.75;100.00;147626.03;4942493;28;20240;-54
2023/10/06 05:15:26;;;;;;;7.37;2.70;;;;;;;5.74;100.00;147624.75;4941971;28;20778;-56
2023/10/06 05:17:55;;;;;;;10.20;3.40;;;;;;;5.71;100.00;147617.31;4939263;28;20249;-58
2023/10/06 05:20:24;;;;;;;8.97;3.63;;;;;;;5.73;100.00;147621.06;4942127;28;20256;-56
2023/10/06 05:22:52;;;;;;;9.13;3.47;;;;;;;5.68;100.00;147608.66;4943989;28;20239;-57
2023/10/06 05:25:22;;;;;;;8.87;3.27;;;;;;;5.66;100.00;147604.91;4944298;28;20237;-54
2023/10/06 05:27:50;;;;;;;8.30;3.20;;;;;;;5.64;100.00;147599.94;4942716;28;20226;-56
2023/10/06 05:30:25;;;;;;;8.50;3.30;;;;;;;5.63;100.00;147597.44;4946100;28;20322;-57
2023/10/06 05:32:52;;;;;;;8.90;3.00;;;;;;;5.67;100.00;147606.16;4943219;28;20705;-56
2023/10/06 05:35:23;;;;;;;8.63;3.33;;;;;;;5.65;100.00;147602.41;4946490;28;20210;-55
2023/10/06 05:37:49;;;;;;;6.10;2.80;;;;;;;5.69;100.00;147612.34;4942592;28;20241;-54
2023/10/06 05:40:22;;;;;;;9.83;3.57;;;;;;;5.67;100.00;147606.16;4945965;28;20306;-56
2023/10/06 05:42:50;;;;;;;10.27;3.27;;;;;;;5.65;100.00;147601.19;4943966;28;20246;-56
2023/10/06 05:45:24;;;;;;;9.20;3.37;;;;;;;5.64;100.00;147598.72;4945678;28;21116;-54
2023/10/06 05:47:51;;;;;;;9.63;3.67;;;;;;;5.67;100.00;147607.38;4943749;28;20248;-55
2023/10/06 05:50:27;;;;;;;8.47;3.17;;;;;;;5.67;100.00;147607.38;4948252;28;20227;-56
2023/10/06 05:52:58;;;;;;;8.33;3.30;;;;;;;5.68;100.00;147608.66;4944986;28;20736;-53
2023/10/06 05:55:29;;;;;;;12.67;3.43;;;;;;;5.75;100.00;147627.25;4945704;28;20248;-56
2023/10/06 05:57:56;;;;;;;7.70;3.10;;;;;;;5.80;100.00;147638.44;4943208;28;20243;-55
2023/10/06 06:00:27;;;;;;;10.13;3.03;;;;;;;5.85;100.00;147650.81;4945864;28;20718;-54
2023/10/06 06:02:57;;;;;;;12.70;3.63;;;;;;;5.93;100.00;147668.19;4943419;28;20325;-56
2023/10/06 06:05:24;;;;;;;8.47;3.60;;;;;;;6.09;100.00;147707.97;4947093;28;20217;-56
2023/10/06 06:07:51;;;;;;;13.40;3.50;;;;;;;6.13;100.00;147717.91;4944478;28;20238;-56
2023/10/06 06:10:23;;;;;;;9.03;3.27;;;;;;;6.16;100.00;147724.13;4945616;28;20234;-56
2023/10/06 06:12:50;;;;;;;7.73;3.67;;;;;;;6.19;100.00;147731.59;4942526;28;20726;-57
2023/10/06 06:15:25;;;;;;;7.67;3.13;;;;;;;6.24;100.00;147744.00;4947021;28;20227;-56
2023/10/06 06:17:52;;;;;;;8.37;3.30;;;;;;;6.29;100.00;147756.44;4945773;28;20230;-56
2023/10/06 06:20:22;;;;;;;8.47;3.33;;;;;;;6.36;100.00;147772.56;4947158;28;20547;-57
2023/10/06 06:22:55;;;;;;;8.67;3.40;;;;;;;6.44;100.00;147792.44;4942358;28;20242;-56
2023/10/06 06:25:23;;;;;;;10.00;3.63;;;;;;;6.49;100.00;147804.84;4944523;28;20241;-56
2023/10/06 06:27:52;;;;;;;8.43;3.60;;;;;;;6.54;100.00;147816.00;4941906;28;20231;-55
2023/10/06 06:30:24;;;;;;;10.63;2.97;;;;;;;6.59;100.00;147827.19;4946009;28;20323;-57
2023/10/06 06:32:52;;;;;;;9.17;3.50;;;;;;;6.62;100.00;147835.88;4942653;28;20299;-56
2023/10/06 06:35:24;;;;;;;8.53;3.20;;;;;;;6.68;100.00;147848.28;4945636;28;20215;-57
2023/10/06 06:37:59;;;;;;;8.33;3.37;;;;;;;6.71;100.00;147855.75;4942132;28;20239;-56
2023/10/06 06:40:28;;;;;;;14.60;3.70;;;;;;;6.74;100.00;147863.19;4944020;28;20241;-56
2023/10/06 06:42:56;;;;;;;8.40;3.63;;;;;;;6.77;100.00;147871.94;4935807;28;20249;-57
2023/10/06 06:45:25;;;;;;;8.90;3.27;;;;;;;6.81;100.00;147880.59;4945578;28;20258;-57
2023/10/06 06:47:52;;;;;;;10.93;3.87;;;;;;;6.85;100.00;147890.53;4942954;28;20640;-57
2023/10/06 06:50:23;;;;;;;10.50;3.57;;;;;;;6.92;100.00;147907.94;4946108;28;20570;-57
2023/10/06 06:52:53;;;;;;;11.27;3.60;;;;;;;6.98;100.00;147920.34;4941758;28;20242;-56
2023/10/06 06:55:23;;;;;;;10.17;3.63;;;;;;;7.01;100.00;147929.03;4942002;28;20228;-55
2023/10/06 06:57:50;;;;;;;10.93;3.57;;;;;;;7.07;100.00;147942.72;4940362;28;20248;-55
2023/10/06 07:00:24;;;;;;;9.10;3.63;;;;;;;7.09;100.00;147948.91;4945061;28;20701;-58
2023/10/06 07:02:51;;;;;;;8.43;3.40;;;;;;;7.15;100.00;147962.59;4941459;28;20749;-58
2023/10/06 07:05:23;;;;;;;14.43;3.30;;;;;;;7.19;100.00;147972.53;4941759;28;20223;-57
2023/10/06 07:07:51;;;;;;;12.27;3.33;;;;;;;7.28;100.00;147993.66;4941777;28;20243;-55
2023/10/06 07:10:24;;;;;;;8.97;3.33;;;;;;;7.31;100.00;148001.09;4943449;28;20242;-56
2023/10/06 07:12:51;;;;;;;8.10;3.30;;;;;;;7.36;100.00;148012.31;4940886;28;20330;-57
2023/10/06 07:15:24;;;;;;;12.07;3.80;;;;;;;7.41;100.00;148023.47;4942956;28;20317;-57
2023/10/06 07:17:53;;;;;;;8.03;3.40;;;;;;;7.47;100.00;148038.41;4941750;28;20231;-57
2023/10/06 07:20:26;;;;;;;8.80;3.40;;;;;;;7.53;100.00;148053.31;4943324;28;20311;-57
2023/10/06 07:22:53;;;;;;;8.83;3.77;;;;;;;7.58;100.00;148065.75;4939960;28;20245;-56
2023/10/06 07:25:26;;;;;;;8.47;2.60;;;;;;;7.66;100.00;148084.38;4942974;28;20235;-57
2023/10/06 07:27:55;;;;;;;9.20;3.57;;;;;;;7.75;100.00;148106.75;4937754;28;20587;-57
2023/10/06 07:30:27;;;;;;;7.17;3.10;;;;;;;7.83;100.00;148126.63;4944939;28;20315;-56
2023/10/06 07:32:57;;;;;;;10.10;3.90;;;;;;;7.90;100.00;148142.81;4941947;28;20271;-57
2023/10/06 07:35:27;;;;;;;11.10;3.33;;;;;;;7.98;100.00;148162.66;4944242;28;20257;-58
2023/10/06 07:37:54;;;;;;;10.27;3.27;;;;;;;8.05;100.00;148178.84;4942196;28;21695;-57
2023/10/06 07:40:22;;;;;;;8.80;3.63;;;;;;;8.13;100.00;148198.75;4943648;28;20236;-54
2023/10/06 07:42:50;;;;;;;7.47;3.33;;;;;;;8.24;100.00;148224.84;4939653;28;20241;-57
2023/10/06 07:45:23;;;;;;;10.43;3.30;;;;;;;8.35;100.00;148250.97;4943374;28;20689;-57
2023/10/06 07:47:51;;;;;;;13.73;3.50;;;;;;;8.51;100.00;148288.28;4941146;28;20243;-57
2023/10/06 07:50:22;;;;;;;9.67;3.10;;;;;;;8.68;100.00;148329.38;4945375;28;20608;-58
2023/10/06 07:52:52;;;;;;;14.77;5.17;;;;;;;8.91;100.00;148384.09;4940239;28;20590;-57
2023/10/06 07:55:23;;;;;;;11.77;4.60;;;;;;;9.13;100.00;148438.81;4942779;28;20715;-58
2023/10/06 07:57:51;;;;;;;11.03;4.43;;;;;;;9.31;100.00;148481.13;4940779;28;20316;-58
2023/10/06 08:00:28;;;;;;;11.53;4.73;;;;;;;9.45;100.00;148515.97;4943229;28;20307;-57
2023/10/06 08:02:57;;;;;;;9.80;4.30;;;;;;;9.57;100.00;148544.56;4942760;28;20296;-57
2023/10/06 08:05:24;;;;;;;14.70;6.00;;;;;;;9.71;100.00;148576.94;4943426;28;20264;-60
2023/10/06 08:07:52;;;;;;;10.37;5.23;;;;;;;9.82;100.00;148603.09;4940400;28;20234;-56
2023/10/06 08:10:23;;;;;;;12.03;4.37;;;;;;;9.93;100.00;148629.22;4945471;28;21031;-58
2023/10/06 08:12:51;;;;;;;11.57;4.90;;;;;;;10.04;100.00;148656.63;4940021;28;20244;-57
2023/10/06 08:15:25;;;;;;;10.33;4.53;;;;;;;10.17;100.00;148689.00;4943886;28;20228;-55
2023/10/06 08:17:53;;;;;;;11.13;4.97;;;;;;;10.30;100.00;148720.09;4940269;28;20619;-54
2023/10/06 08:20:25;;;;;;;8.93;4.50;;;;;;;10.39;100.00;148741.34;4940380;28;20218;-55
2023/10/06 08:22:52;;;;;;;11.40;3.83;;;;;;;10.44;100.00;148752.53;4939803;28;20236;-56
2023/10/06 08:25:23;;;;;;;8.97;4.00;;;;;;;10.59;100.00;148789.91;4944014;28;20684;-55
2023/10/06 08:27:50;;;;;;;8.27;3.47;;;;;;;10.72;100.00;148821.00;4939574;28;20241;-56
2023/10/06 08:30:22;;;;;;;11.82;4.60;;;;;;;10.85;100.00;148852.19;4941641;28;20484;-55
2023/10/06 08:32:52;;;;;;;10.17;4.40;;;;;;;10.98;100.00;148883.31;4937893;28;20242;-57
2023/10/06 08:35:24;;;;;;;12.10;3.93;;;;;;;11.08;100.00;148907.00;4941338;28;20261;-56
2023/10/06 08:37:52;;;;;;;9.43;4.13;;;;;;;11.23;100.00;148943.09;4939068;28;20248;-56
2023/10/06 08:40:23;;;;;;;16.27;5.00;;;;;;;11.36;100.00;148974.25;4941408;28;20228;-55
2023/10/06 08:42:52;;;;;;;14.40;4.73;;;;;;;11.39;99.57;148981.72;4939228;28;20925;-55
2023/10/06 08:45:24;;;;;;;15.47;5.97;;;;;;;11.50;97.71;149009.13;4943773;28;20315;-56
2023/10/06 08:47:53;;;;;;;13.13;5.13;;;;;;;11.66;98.30;149046.53;4939000;28;20324;-58
2023/10/06 08:50:24;;;;;;;12.23;5.60;;;;;;;11.70;97.32;149055.22;4942739;28;20652;-57
2023/10/06 08:52:51;;;;;;;15.03;5.83;;;;;;;11.79;97.41;149077.66;4939579;28;20245;-57
2023/10/06 08:55:24;;;;;;;14.43;5.57;;;;;;;11.77;96.75;149072.69;4942550;28;20233;-58
2023/10/06 08:57:51;;;;;;;15.17;6.30;;;;;;;11.81;97.98;149083.91;4939295;28;21064;-58
2023/10/06 09:00:24;;;;;;;12.20;5.70;;;;;;;11.99;96.22;149125.03;4941585;28;20227;-58
2023/10/06 09:02:52;;;;;;;15.83;6.63;;;;;;;12.04;95.94;149137.56;4940412;28;20229;-58
2023/10/06 09:05:24;;;;;;;13.87;6.13;;;;;;;12.12;94.48;149157.50;4942317;28;20313;-57
2023/10/06 09:07:59;;;;;;;15.77;7.30;;;;;;;12.12;96.06;149156.28;4939703;28;20328;-57
2023/10/06 09:10:29;;;;;;;15.03;6.27;;;;;;;12.27;94.25;149192.41;4942590;28;20232;-58
2023/10/06 09:13:01;;;;;;;16.10;6.70;;;;;;;12.30;93.33;149199.91;4939092;28;20284;-58
2023/10/06 09:15:29;;;;;;;15.03;6.17;;;;;;;12.39;92.37;149223.56;4940042;28;20803;-58
2023/10/06 09:17:56;;;;;;;15.80;5.97;;;;;;;12.40;92.15;149226.06;4943524;28;20237;-58
2023/10/06 09:20:36;;;;;;;15.40;6.50;;;;;;;12.54;91.99;149258.47;4943679;28;20695;-58
2023/10/06 09:23:03;;;;;;;14.17;6.03;;;;;;;12.67;91.83;149289.69;4940706;28;20660;-59
2023/10/06 09:25:42;;;;;;;11.33;5.83;;;;;;;12.71;92.40;149299.66;4939806;28;20230;-59
2023/10/06 09:28:13;;;;;;;16.47;6.87;;;;;;;12.93;91.49;149352.00;4942635;28;20708;-58
2023/10/06 09:30:50;;;;;;;14.73;6.83;;;;;;;12.93;90.31;149352.00;4936799;28;20245;-57
2023/10/06 09:33:17;;;;;;;14.97;7.17;;;;;;;12.91;91.45;149347.03;4941939;28;20271;-59
2023/10/06 09:35:45;;;;;;;14.70;7.20;;;;;;;13.01;91.22;149371.97;4940688;28;20237;-58
2023/10/06 09:38:15;;;;;;;15.63;6.83;;;;;;;13.12;91.47;149399.41;4942520;28;20314;-59
2023/10/06 09:40:42;;;;;;;15.47;6.33;;;;;;;13.32;91.49;149446.81;4939665;28;20241;-58
2023/10/06 09:43:14;;;;;;;12.90;6.40;;;;;;;13.26;90.67;149433.09;4944267;28;20253;-57
2023/10/06 09:45:42;;;;;;;10.93;5.53;;;;;;;13.46;89.26;149480.53;4938800;28;20223;-57
2023/10/06 09:48:15;;;;;;;13.27;6.03;;;;;;;13.48;88.03;149485.53;4942457;28;20237;-57
2023/10/06 09:50:43;;;;;;;17.43;5.73;;;;;;;13.57;87.73;149506.78;4939389;28;20233;-59
2023/10/06 09:53:13;;;;;;;12.47;6.07;;;;;;;13.64;87.04;149522.97;4942607;28;20303;-58
2023/10/06 09:55:41;;;;;;;14.90;5.70;;;;;;;13.68;85.67;149532.97;4939076;28;20309;-58
2023/10/06 09:58:08;;;;;;;13.57;6.03;;;;;;;13.60;87.42;149513.00;4941891;28;20233;-57
2023/10/06 10:00:39;;;;;;;10.70;5.17;;;;;;;13.72;87.97;149544.22;4938853;28;20219;-58
2023/10/06 10:03:06;;;;;;;15.03;5.97;;;;;;;13.75;87.42;149549.22;4942922;28;20231;-57
2023/10/06 10:05:33;;;;;;;11.43;5.63;;;;;;;13.76;86.83;149552.94;4939670;28;20728;-56
2023/10/06 10:07:59;;;;;;;13.47;5.37;;;;;;;13.84;85.81;149571.63;4943120;28;20741;-56
2023/10/06 10:10:28;;;;;;;11.37;5.70;;;;;;;13.95;85.13;149599.09;4946881;28;20235;-58
2023/10/06 10:13:32;;;;;;;11.93;5.30;;;;;;;14.02;85.01;149615.34;4941749;28;20594;-59
2023/10/06 10:16:25;;;;;;;14.10;5.40;;;;;;;14.16;84.27;149650.28;4943026;28;20309;-59
2023/10/06 10:18:58;;;;;;;17.73;5.70;;;;;;;14.17;83.64;149651.53;4942856;28;20246;-58
2023/10/06 10:21:25;;;;;;;15.60;5.23;;;;;;;14.22;85.36;149664.00;4944256;28;20250;-59
2023/10/06 10:23:52;;;;;;;9.40;5.10;;;;;;;14.29;84.71;149681.47;4942769;28;20239;-58
2023/10/06 10:26:24;;;;;;;14.10;5.60;;;;;;;14.26;85.95;149672.75;4944863;28;20232;-59
2023/10/06 10:29:28;;;;;;;12.70;5.47;;;;;;;14.35;85.80;149695.19;4942854;28;20797;-59
2023/10/06 10:32:01;;;;;;;12.37;5.47;;;;;;;14.46;84.83;149721.44;4940345;28;20243;-58
2023/10/06 10:34:33;;;;;;;10.67;5.20;;;;;;;14.63;85.18;149761.41;4942380;28;21333;-58
2023/10/06 10:37:16;;;;;;;12.20;5.07;;;;;;;14.83;82.56;149811.41;4945581;28;20324;-59
2023/10/06 10:39:48;;;;;;;13.90;5.13;;;;;;;14.95;81.46;149840.09;4941577;28;20315;-57
2023/10/06 10:42:21;;;;;;;11.43;5.50;;;;;;;14.91;80.85;149831.34;4945437;28;20236;-58
2023/10/06 10:44:48;;;;;;;10.70;4.73;;;;;;;15.02;79.19;149857.59;4942347;28;20252;-59
2023/10/06 10:47:16;;;;;;;9.73;5.23;;;;;;;15.19;79.34;149897.56;4944705;28;20252;-58
2023/10/06 10:49:44;;;;;;;9.60;5.33;;;;;;;15.16;78.47;149891.28;4942252;28;20694;-59
2023/10/06 10:52:25;;;;;;;10.30;5.07;;;;;;;15.42;79.06;149953.75;4945757;28;20243;-58
2023/10/06 10:54:54;;;;;;;12.20;5.13;;;;;;;15.37;78.55;149941.28;4942464;28;20252;-59
2023/10/06 10:57:22;;;;;;;14.53;5.30;;;;;;;15.52;78.83;149977.47;4945528;28;20220;-59
2023/10/06 11:00:13;;;;;;;11.47;4.87;;;;;;;15.48;78.63;149967.47;4942669;28;20240;-59
2023/10/06 11:02:45;;;;;;;14.47;5.53;;;;;;;15.58;77.69;149991.25;4938499;28;20223;-59
2023/10/06 11:05:12;;;;;;;10.63;5.20;;;;;;;15.78;78.95;150041.22;4943813;28;20222;-59
2023/10/06 11:07:39;;;;;;;10.40;5.13;;;;;;;15.92;76.70;150075.00;4942439;28;20213;-59
2023/10/06 11:10:06;;;;;;;13.27;5.80;;;;;;;16.03;75.60;150101.22;4945469;28;20240;-58
2023/10/06 11:12:35;;;;;;;11.33;4.73;;;;;;;16.05;77.76;150105.00;4942527;28;20289;-59
2023/10/06 11:15:13;;;;;;;17.60;5.93;;;;;;;16.09;73.50;150116.22;4944311;28;20255;-59
2023/10/06 11:17:41;;;;;;;16.47;5.77;;;;;;;15.97;75.46;150086.22;4941713;28;20224;-59
2023/10/06 11:20:15;;;;;;;11.37;5.37;;;;;;;15.90;75.76;150070.00;4944003;28;20572;-58
2023/10/06 11:22:53;;;;;;;12.53;5.10;;;;;;;16.03;75.18;150100.00;4941822;28;20237;-58
2023/10/06 11:25:27;;;;;;;11.13;5.20;;;;;;;15.96;75.47;150082.50;4942861;28;20686;-59
2023/10/06 11:28:00;;;;;;;12.77;5.00;;;;;;;15.87;77.15;150062.50;4941067;28;20237;-55
2023/10/06 11:30:30;;;;;;;17.80;5.47;;;;;;;15.86;76.40;150059.94;4940564;28;20226;-59
2023/10/06 11:32:57;;;;;;;13.67;5.83;;;;;;;15.92;77.65;150073.72;4941125;28;20245;-59
2023/10/06 11:35:24;;;;;;;13.23;5.00;;;;;;;16.07;76.17;150111.22;4942348;28;20301;-59
2023/10/06 11:37:51;;;;;;;11.20;5.23;;;;;;;16.16;75.41;150132.50;4940569;28;20245;-55
2023/10/06 11:40:24;;;;;;;10.80;4.80;;;;;;;16.20;75.84;150142.50;4943437;28;20225;-59